createdAt,value
2018-12-06T00:02:13.990Z,19.07
2018-12-06T00:04:41.450Z,17.57
2018-12-06T00:07:08.948Z,18.60
2018-12-06T00:09:36.395Z,15.43
2018-12-06T00:12:03.972Z,15.30
2018-12-06T00:14:31.435Z,15.57
2018-12-06T00:16:58.995Z,16.00
2018-12-06T00:19:26.452Z,15.83
2018-12-06T00:21:53.897Z,16.27
2018-12-06T00:24:21.392Z,13.80
2018-12-06T00:26:48.827Z,16.47
2018-12-06T00:29:16.302Z,18.90
2018-12-06T00:31:43.777Z,19.73
2018-12-06T00:34:11.228Z,17.20
2018-12-06T00:36:38.784Z,16.90
2018-12-06T00:39:06.548Z,16.30
2018-12-06T00:41:34.021Z,15.43
2018-12-06T00:44:01.469Z,19.63
2018-12-06T00:46:28.939Z,11.80
2018-12-06T00:48:56.408Z,20.03
2018-12-06T00:51:23.964Z,17.10
2018-12-06T00:53:51.428Z,13.30
2018-12-06T00:56:18.895Z,16.30
2018-12-06T00:58:46.448Z,13.83
2018-12-06T01:01:13.922Z,13.20
2018-12-06T01:03:41.580Z,18.33
2018-12-06T01:06:09.151Z,16.70
2018-12-06T01:08:36.703Z,15.40
2018-12-06T01:11:04.135Z,17.33
2018-12-06T01:13:31.627Z,13.70
2018-12-06T01:15:59.193Z,16.53
2018-12-06T01:18:26.648Z,11.80
2018-12-06T01:20:54.124Z,15.57
2018-12-06T01:23:21.682Z,17.87
2018-12-06T01:25:49.113Z,14.67
2018-12-06T01:28:16.599Z,13.97
2018-12-06T01:30:44.069Z,12.50
2018-12-06T01:33:11.836Z,13.43
2018-12-06T01:35:39.300Z,14.40
2018-12-06T01:38:06.761Z,11.77
2018-12-06T01:40:34.216Z,14.07
2018-12-06T01:43:01.680Z,19.50
2018-12-06T01:45:29.153Z,17.47
2018-12-06T01:47:56.608Z,12.87
2018-12-06T01:50:24.160Z,13.00
2018-12-06T01:52:51.600Z,12.87
2018-12-06T01:55:19.083Z,14.47
2018-12-06T01:57:46.520Z,16.73
2018-12-06T02:00:14.535Z,15.13
2018-12-06T02:02:41.987Z,13.07
2018-12-06T02:05:09.424Z,14.13
2018-12-06T02:07:36.904Z,11.57
2018-12-06T02:10:05.911Z,12.40
2018-12-06T02:12:33.571Z,13.27
2018-12-06T02:15:01.036Z,13.07
2018-12-06T02:17:28.600Z,13.30
2018-12-06T02:19:56.023Z,13.83
2018-12-06T02:22:23.497Z,13.63
2018-12-06T02:24:50.979Z,11.23
2018-12-06T02:27:18.436Z,12.30
2018-12-06T02:29:51.484Z,15.03
2018-12-06T02:32:18.935Z,14.07
2018-12-06T02:34:46.455Z,10.60
2018-12-06T02:37:13.996Z,13.90
2018-12-06T02:39:41.473Z,12.40
2018-12-06T02:42:09.041Z,11.73
2018-12-06T02:44:36.687Z,12.93
2018-12-06T02:47:04.274Z,13.40
2018-12-06T02:49:31.728Z,11.80
2018-12-06T02:51:59.195Z,13.87
2018-12-06T02:54:26.625Z,12.70
2018-12-06T02:56:54.059Z,14.53
2018-12-06T02:59:21.599Z,12.53
2018-12-06T03:01:49.092Z,10.47
2018-12-06T03:04:16.599Z,29.13
2018-12-06T03:06:44.143Z,12.60
2018-12-06T03:09:11.729Z,10.90
2018-12-06T03:11:39.151Z,14.90
2018-12-06T03:14:06.664Z,12.10
2018-12-06T03:16:34.113Z,11.63
2018-12-06T03:19:01.577Z,12.23
2018-12-06T03:21:29.037Z,16.23
2018-12-06T03:23:56.600Z,14.67
2018-12-06T03:26:24.068Z,16.27
2018-12-06T03:28:51.530Z,14.27
2018-12-06T03:31:18.993Z,17.63
2018-12-06T03:33:46.550Z,12.77
2018-12-06T03:36:13.992Z,14.90
2018-12-06T03:38:41.472Z,15.13
2018-12-06T03:41:08.936Z,18.63
2018-12-06T03:43:36.396Z,14.17
2018-12-06T03:46:03.956Z,16.57
2018-12-06T03:48:31.529Z,17.83
2018-12-06T03:50:58.963Z,20.57
2018-12-06T03:53:26.451Z,19.70
2018-12-06T03:55:54.009Z,17.63
2018-12-06T03:58:21.473Z,17.80
2018-12-06T04:00:48.933Z,17.37
2018-12-06T04:03:16.465Z,19.43
2018-12-06T04:05:44.030Z,19.27
2018-12-06T04:08:11.520Z,15.17
2018-12-06T04:10:38.985Z,17.33
2018-12-06T04:13:06.544Z,20.80
2018-12-06T04:15:34.640Z,20.17
2018-12-06T04:18:02.188Z,19.33
2018-12-06T04:20:29.748Z,18.43
2018-12-06T04:22:57.180Z,20.50
2018-12-06T04:25:24.625Z,22.93
2018-12-06T04:27:52.060Z,19.33
2018-12-06T04:30:19.508Z,23.77
2018-12-06T04:32:46.957Z,21.33
2018-12-06T04:35:14.420Z,26.10
2018-12-06T04:37:41.981Z,21.40
2018-12-06T04:40:09.432Z,22.50
2018-12-06T04:42:36.906Z,22.23
2018-12-06T04:45:07.022Z,22.70
2018-12-06T04:47:34.484Z,25.40
2018-12-06T04:50:02.048Z,25.67
2018-12-06T04:52:29.516Z,21.33
2018-12-06T04:54:56.942Z,21.83
2018-12-06T04:57:24.440Z,26.20
2018-12-06T04:59:51.893Z,22.27
2018-12-06T05:02:19.348Z,23.37
2018-12-06T05:04:46.890Z,29.00
2018-12-06T05:07:14.355Z,24.60
2018-12-06T05:09:41.844Z,23.23
2018-12-06T05:12:09.416Z,24.77
2018-12-06T05:14:36.972Z,25.73
2018-12-06T05:17:04.432Z,27.00
2018-12-06T05:19:31.887Z,29.10
2018-12-06T05:21:59.356Z,29.57
2018-12-06T05:24:26.808Z,29.70
2018-12-06T05:26:54.379Z,28.10
2018-12-06T05:29:21.840Z,33.33
2018-12-06T05:31:49.304Z,29.30
2018-12-06T05:34:16.872Z,27.20
2018-12-06T05:36:44.361Z,27.90
2018-12-06T05:39:11.897Z,31.30
2018-12-06T05:41:39.351Z,31.90
2018-12-06T05:44:06.822Z,30.70
2018-12-06T05:46:34.276Z,34.07
2018-12-06T05:49:01.845Z,28.40
2018-12-06T05:51:29.276Z,27.70
2018-12-06T05:53:56.786Z,33.03
2018-12-06T05:56:24.324Z,27.90
2018-12-06T05:58:51.767Z,27.10
2018-12-06T06:01:19.248Z,30.23
2018-12-06T06:03:46.684Z,27.50
2018-12-06T06:06:14.172Z,26.97
2018-12-06T06:08:41.631Z,28.97
2018-12-06T06:11:09.095Z,28.20
2018-12-06T06:13:36.560Z,26.80
2018-12-06T06:16:04.119Z,23.00
2018-12-06T06:18:31.612Z,23.70
2018-12-06T06:20:59.153Z,21.20
2018-12-06T06:23:26.613Z,27.07
2018-12-06T06:25:54.065Z,23.20
2018-12-06T06:28:21.532Z,27.37
2018-12-06T06:30:48.996Z,22.83
2018-12-06T06:33:16.525Z,22.70
2018-12-06T06:35:44.020Z,27.70
2018-12-06T06:38:11.572Z,25.73
2018-12-06T06:40:39.151Z,29.87
2018-12-06T06:43:06.712Z,28.73
2018-12-06T06:45:34.277Z,28.03
2018-12-06T06:48:01.731Z,28.40
2018-12-06T06:50:29.192Z,26.37
2018-12-06T06:52:56.652Z,26.50
2018-12-06T06:55:24.230Z,27.90
2018-12-06T06:57:51.783Z,26.40
2018-12-06T07:00:19.365Z,27.00
2018-12-06T07:02:46.816Z,34.33
2018-12-06T07:05:14.290Z,26.30
2018-12-06T07:07:41.732Z,32.70
2018-12-06T07:10:09.301Z,33.50
2018-12-06T07:12:36.858Z,29.40
2018-12-06T07:15:04.677Z,35.00
2018-12-06T07:17:32.109Z,32.07
2018-12-06T07:20:00.164Z,30.50
2018-12-06T07:22:27.623Z,33.20
2018-12-06T07:24:55.193Z,28.33
2018-12-06T07:27:22.653Z,33.63
2018-12-06T07:29:50.221Z,29.83
2018-12-06T07:32:17.685Z,36.97
2018-12-06T07:34:45.240Z,28.83
2018-12-06T07:37:12.693Z,30.80
2018-12-06T07:39:40.168Z,31.17
2018-12-06T07:42:07.628Z,28.10
2018-12-06T07:44:35.084Z,38.20
2018-12-06T07:47:02.661Z,37.40
2018-12-06T07:49:30.122Z,40.67
2018-12-06T07:51:57.576Z,33.10
2018-12-06T07:54:25.136Z,33.67
2018-12-06T07:56:52.624Z,40.47
2018-12-06T07:59:20.173Z,37.93
2018-12-06T08:01:47.833Z,37.90
2018-12-06T08:04:15.297Z,35.07
2018-12-06T08:06:42.869Z,37.43
2018-12-06T08:09:10.420Z,44.90
2018-12-06T08:11:38.734Z,41.57
2018-12-06T08:14:06.369Z,35.53
2018-12-06T08:16:33.832Z,43.20
2018-12-06T08:19:01.389Z,41.50
2018-12-06T08:21:28.856Z,41.13
2018-12-06T08:23:56.415Z,42.27
2018-12-06T08:26:23.885Z,47.10
2018-12-06T08:28:51.341Z,47.17
2018-12-06T08:31:18.805Z,43.80
2018-12-06T08:33:46.365Z,49.33
2018-12-06T08:36:13.927Z,44.90
2018-12-06T08:38:41.388Z,52.67
2018-12-06T08:41:08.897Z,49.73
2018-12-06T08:43:36.417Z,49.20
2018-12-06T08:46:03.892Z,48.60
2018-12-06T08:48:31.424Z,49.10
2018-12-06T08:50:58.996Z,48.70
2018-12-06T08:53:26.533Z,49.00
2018-12-06T08:55:54.028Z,54.47
2018-12-06T08:58:21.484Z,58.53
2018-12-06T09:00:49.058Z,53.67
2018-12-06T09:03:16.621Z,53.33
2018-12-06T09:05:44.176Z,49.63
2018-12-06T09:08:11.635Z,49.60
2018-12-06T09:10:40.608Z,59.77
2018-12-06T09:13:08.377Z,48.90
2018-12-06T09:15:35.871Z,56.77
2018-12-06T09:18:03.439Z,55.23
2018-12-06T09:20:31.005Z,55.73
2018-12-06T09:22:58.484Z,52.63
2018-12-06T09:25:26.024Z,47.30
2018-12-06T09:27:53.485Z,45.07
2018-12-06T09:30:21.048Z,50.03
2018-12-06T09:32:48.510Z,48.93
2018-12-06T09:35:15.971Z,48.90
2018-12-06T09:37:43.420Z,46.83
2018-12-06T09:40:10.909Z,48.40
2018-12-06T09:42:38.526Z,44.53
2018-12-06T09:45:06.533Z,45.13
2018-12-06T09:47:34.097Z,40.63
2018-12-06T09:50:01.565Z,45.93
2018-12-06T09:52:29.066Z,41.13
2018-12-06T09:54:56.472Z,44.00
2018-12-06T09:57:23.940Z,40.67
2018-12-06T09:59:51.400Z,47.40
2018-12-06T10:02:18.837Z,43.40
2018-12-06T10:04:46.328Z,49.50
2018-12-06T10:07:13.793Z,50.03
2018-12-06T10:09:41.255Z,52.20
2018-12-06T10:12:08.812Z,52.27
2018-12-06T10:14:36.280Z,53.77
2018-12-06T10:17:03.969Z,54.43
2018-12-06T10:19:31.417Z,58.43
2018-12-06T10:21:59.026Z,56.73
2018-12-06T10:24:26.536Z,57.80
2018-12-06T10:26:53.996Z,61.80
2018-12-06T10:29:21.456Z,59.47
2018-12-06T10:31:48.953Z,59.13
2018-12-06T10:34:16.376Z,62.53
2018-12-06T10:36:43.941Z,64.80
2018-12-06T10:39:11.505Z,55.70
2018-12-06T10:41:39.004Z,63.10
2018-12-06T10:44:06.539Z,56.70
2018-12-06T10:46:34.097Z,51.27
2018-12-06T10:49:01.661Z,66.27
2018-12-06T10:51:40.480Z,54.80
2018-12-06T10:54:08.168Z,56.97
2018-12-06T10:56:35.863Z,56.10
2018-12-06T10:59:03.341Z,58.93
2018-12-06T11:01:36.384Z,56.07
2018-12-06T11:04:03.929Z,53.30
2018-12-06T11:06:31.492Z,50.00
2018-12-06T11:08:58.953Z,58.17
2018-12-06T11:11:26.611Z,63.20
2018-12-06T11:13:54.184Z,57.30
2018-12-06T11:16:21.636Z,46.40
2018-12-06T11:18:49.273Z,44.33
2018-12-06T11:21:16.772Z,46.37
2018-12-06T11:23:44.436Z,51.70
2018-12-06T11:26:37.653Z,47.97
2018-12-06T11:29:05.128Z,43.33
2018-12-06T11:31:32.581Z,44.93
2018-12-06T11:34:00.041Z,52.93
2018-12-06T11:36:27.517Z,45.70
2018-12-06T11:38:55.092Z,42.43
2018-12-06T11:41:22.552Z,51.83
2018-12-06T11:43:50.121Z,48.10
2018-12-06T11:46:17.559Z,48.57
2018-12-06T11:48:45.053Z,43.43
2018-12-06T11:51:12.708Z,43.20
2018-12-06T11:53:40.155Z,37.70
2018-12-06T11:56:07.700Z,41.73
2018-12-06T11:58:35.196Z,39.63
2018-12-06T12:01:02.725Z,41.97
2018-12-06T12:03:30.246Z,40.97
2018-12-06T12:05:58.800Z,36.67
2018-12-06T12:08:26.471Z,39.33
2018-12-06T12:10:54.036Z,37.60
2018-12-06T12:13:21.607Z,36.33
2018-12-06T12:15:49.060Z,37.10
2018-12-06T12:18:16.520Z,38.47
2018-12-06T12:20:43.979Z,35.33
2018-12-06T12:23:11.448Z,35.30
2018-12-06T12:25:39.013Z,35.50
2018-12-06T12:28:06.575Z,36.90
2018-12-06T12:30:34.035Z,34.10
2018-12-06T12:33:01.604Z,38.80
2018-12-06T12:35:29.038Z,34.90
2018-12-06T12:37:56.520Z,32.03
2018-12-06T12:40:23.988Z,32.23
2018-12-06T12:42:51.548Z,32.77
2018-12-06T12:45:19.004Z,31.10
2018-12-06T12:47:46.474Z,33.73
2018-12-06T12:50:13.930Z,35.00
2018-12-06T12:52:41.400Z,29.73
2018-12-06T12:55:08.960Z,27.43
2018-12-06T12:57:36.517Z,32.33
2018-12-06T13:00:05.823Z,21.50
2018-12-06T13:02:33.355Z,31.47
2018-12-06T13:05:00.919Z,24.23
2018-12-06T13:07:28.424Z,25.53
2018-12-06T13:09:55.888Z,25.93
2018-12-06T13:12:23.431Z,28.10
2018-12-06T13:14:51.013Z,25.03
2018-12-06T13:17:18.571Z,29.07
2018-12-06T13:19:46.133Z,25.30
2018-12-06T13:22:13.697Z,37.50
2018-12-06T13:24:41.665Z,26.93
2018-12-06T13:27:09.144Z,26.90
2018-12-06T13:29:36.693Z,28.93
2018-12-06T13:32:04.151Z,28.40
2018-12-06T13:34:31.722Z,30.77
2018-12-06T13:36:59.196Z,24.13
2018-12-06T13:39:26.745Z,30.80
2018-12-06T13:41:54.316Z,26.70
2018-12-06T13:44:21.794Z,22.33
2018-12-06T13:46:49.250Z,29.60
2018-12-06T13:49:16.707Z,26.50
2018-12-06T13:51:44.165Z,24.20
2018-12-06T13:54:11.724Z,22.93
2018-12-06T13:56:39.247Z,27.33
2018-12-06T13:59:06.747Z,18.97
2018-12-06T14:01:34.265Z,20.70
2018-12-06T14:04:01.749Z,25.07
2018-12-06T14:06:29.338Z,19.67
2018-12-06T14:08:56.897Z,20.80
2018-12-06T14:11:24.356Z,23.53
2018-12-06T14:13:51.821Z,18.83
2018-12-06T14:16:19.271Z,24.50
2018-12-06T14:18:46.744Z,19.53
2018-12-06T14:21:14.185Z,22.93
2018-12-06T14:23:41.637Z,17.73
2018-12-06T14:26:09.129Z,23.33
2018-12-06T14:28:36.695Z,28.83
2018-12-06T14:31:04.247Z,24.87
2018-12-06T14:33:31.717Z,20.20
2018-12-06T14:35:59.176Z,21.60
2018-12-06T14:38:26.636Z,32.87
2018-12-06T14:40:54.105Z,25.40
2018-12-06T14:43:21.551Z,22.50
2018-12-06T14:45:49.500Z,29.03
2018-12-06T14:48:17.180Z,26.07
2018-12-06T14:50:44.652Z,21.00
2018-12-06T14:53:12.124Z,27.33
2018-12-06T14:55:39.680Z,19.20
2018-12-06T14:58:07.148Z,25.43
2018-12-06T15:00:34.781Z,19.63
2018-12-06T15:03:02.272Z,28.33
2018-12-06T15:05:29.718Z,23.30
2018-12-06T15:07:57.269Z,21.47
2018-12-06T15:10:24.759Z,23.17
2018-12-06T15:12:52.200Z,18.83
2018-12-06T15:15:19.789Z,26.67
2018-12-06T15:17:47.252Z,24.17
2018-12-06T15:20:14.712Z,28.07
2018-12-06T15:22:42.174Z,18.73
2018-12-06T15:25:09.621Z,23.77
2018-12-06T15:27:38.003Z,22.90
2018-12-06T15:30:06.680Z,27.70
2018-12-06T15:32:34.117Z,21.73
2018-12-06T15:35:01.697Z,20.17
2018-12-06T15:37:29.193Z,20.30
2018-12-06T15:39:56.632Z,19.77
2018-12-06T15:42:24.116Z,22.73
2018-12-06T15:44:51.572Z,23.83
2018-12-06T15:47:19.080Z,33.87
2018-12-06T15:49:46.552Z,19.87
2018-12-06T15:52:13.989Z,24.80
2018-12-06T15:54:41.548Z,21.57
2018-12-06T15:57:08.979Z,22.47
2018-12-06T15:59:36.454Z,22.10
2018-12-06T16:02:03.928Z,24.97
2018-12-06T16:04:31.472Z,25.30
2018-12-06T16:06:58.912Z,23.27
2018-12-06T16:09:26.356Z,24.87
2018-12-06T16:11:53.855Z,27.97
2018-12-06T16:14:21.306Z,24.53
2018-12-06T16:16:48.781Z,22.20
2018-12-06T16:19:16.258Z,20.97
2018-12-06T16:21:43.764Z,22.97
2018-12-06T16:24:11.260Z,24.27
2018-12-06T16:26:38.749Z,18.77
2018-12-06T16:29:06.556Z,19.93
2018-12-06T16:31:34.060Z,18.87
2018-12-06T16:34:01.528Z,18.60
2018-12-06T16:36:29.020Z,24.73
2018-12-06T16:38:56.553Z,20.47
2018-12-06T16:41:24.108Z,26.27
2018-12-06T16:43:51.539Z,22.13
2018-12-06T16:46:18.971Z,24.83
2018-12-06T16:48:46.409Z,25.13
2018-12-06T16:51:13.880Z,18.53
2018-12-06T16:53:41.421Z,19.83
2018-12-06T16:56:08.884Z,19.37
2018-12-06T16:58:36.409Z,24.67
2018-12-06T17:01:04.007Z,21.43
2018-12-06T17:03:31.464Z,27.00
2018-12-06T17:05:58.928Z,16.97
2018-12-06T17:08:26.505Z,26.07
2018-12-06T17:10:54.009Z,21.73
2018-12-06T17:13:21.501Z,20.80
2018-12-06T17:15:49.015Z,21.60
2018-12-06T17:18:16.547Z,22.13
2018-12-06T17:20:44.001Z,20.27
2018-12-06T17:23:11.469Z,23.33
2018-12-06T17:25:38.932Z,22.40
2018-12-06T17:28:06.493Z,25.17
2018-12-06T17:30:33.958Z,22.83
2018-12-06T17:33:01.424Z,24.53
2018-12-06T17:35:28.985Z,25.97
2018-12-06T17:37:56.544Z,24.50
2018-12-06T17:40:24.112Z,20.00
2018-12-06T17:42:51.569Z,23.77
2018-12-06T17:45:19.204Z,23.20
2018-12-06T17:47:46.722Z,20.07
2018-12-06T17:50:14.157Z,23.27
2018-12-06T17:52:41.616Z,20.53
2018-12-06T17:55:09.136Z,23.87
2018-12-06T17:57:36.650Z,22.13
2018-12-06T18:00:07.071Z,25.70
2018-12-06T18:02:34.604Z,24.40
2018-12-06T18:05:02.053Z,21.23
2018-12-06T18:07:29.488Z,22.33
2018-12-06T18:09:57.024Z,19.83
2018-12-06T18:12:24.603Z,23.80
2018-12-06T18:14:52.091Z,22.17
2018-12-06T18:17:19.511Z,20.13
2018-12-06T18:19:47.085Z,18.13
2018-12-06T18:22:14.529Z,21.97
2018-12-06T18:24:42.001Z,18.77
2018-12-06T18:27:09.593Z,17.10
2018-12-06T18:29:37.136Z,15.87
2018-12-06T18:32:04.756Z,22.77
2018-12-06T18:34:32.200Z,18.17
2018-12-06T18:36:59.708Z,17.90
2018-12-06T18:39:27.192Z,17.00
2018-12-06T18:41:54.735Z,18.93
2018-12-06T18:44:22.228Z,17.13
2018-12-06T18:46:49.672Z,18.63
2018-12-06T18:49:17.225Z,17.80
2018-12-06T18:51:44.760Z,21.37
2018-12-06T18:54:12.247Z,20.63
2018-12-06T18:56:39.817Z,21.83
2018-12-06T18:59:07.282Z,17.20
2018-12-06T19:01:34.744Z,22.87
2018-12-06T19:04:02.196Z,26.27
2018-12-06T19:06:29.660Z,16.53
2018-12-06T19:08:57.191Z,16.23
2018-12-06T19:11:24.683Z,20.60
2018-12-06T19:13:52.145Z,19.30
2018-12-06T19:16:19.603Z,18.40
2018-12-06T19:18:47.138Z,19.03
2018-12-06T19:21:14.560Z,20.93
2018-12-06T19:23:42.523Z,19.47
2018-12-06T19:26:10.073Z,22.93
2018-12-06T19:28:37.645Z,23.47
2018-12-06T19:31:05.208Z,21.07
2018-12-06T19:33:32.830Z,18.10
2018-12-06T19:36:00.327Z,21.23
2018-12-06T19:38:27.889Z,21.97
2018-12-06T19:40:55.469Z,24.80
2018-12-06T19:43:23.204Z,22.97
2018-12-06T19:45:50.684Z,25.27
2018-12-06T19:48:18.140Z,22.63
2018-12-06T19:50:45.605Z,30.10
2018-12-06T19:53:13.180Z,22.23
2018-12-06T19:55:40.737Z,21.47
2018-12-06T19:58:08.309Z,20.70
2018-12-06T20:00:35.884Z,22.70
2018-12-06T20:03:03.308Z,24.43
2018-12-06T20:05:30.792Z,21.80
2018-12-06T20:07:58.349Z,25.73
2018-12-06T20:10:25.876Z,26.80
2018-12-06T20:12:53.322Z,28.77
2018-12-06T20:15:20.828Z,25.10
2018-12-06T20:17:48.304Z,21.97
2018-12-06T20:20:23.366Z,27.13
2018-12-06T20:22:45.369Z,25.40
2018-12-06T20:25:12.824Z,22.10
2018-12-06T20:27:40.357Z,24.50
2018-12-06T20:30:07.960Z,22.60
2018-12-06T20:32:35.416Z,25.70
2018-12-06T20:35:02.979Z,27.03
2018-12-06T20:37:30.428Z,27.10
2018-12-06T20:39:57.900Z,28.77
2018-12-06T20:42:25.469Z,28.03
2018-12-06T20:44:53.099Z,27.13
2018-12-06T20:47:20.511Z,25.57
2018-12-06T20:49:48.065Z,27.67
2018-12-06T20:52:15.622Z,25.17
2018-12-06T20:54:43.176Z,26.07
2018-12-06T20:57:10.643Z,25.33
2018-12-06T20:59:38.087Z,26.97
2018-12-06T21:02:05.568Z,24.27
2018-12-06T21:04:33.132Z,24.63
2018-12-06T21:07:00.732Z,22.93
2018-12-06T21:09:28.258Z,20.77
2018-12-06T21:11:55.725Z,19.97
2018-12-06T21:14:23.191Z,23.17
2018-12-06T21:16:50.768Z,23.30
2018-12-06T21:19:18.308Z,21.50
2018-12-06T21:21:45.872Z,21.67
2018-12-06T21:24:13.396Z,21.00
2018-12-06T21:26:40.899Z,23.33
2018-12-06T21:29:08.473Z,21.10
2018-12-06T21:31:35.936Z,22.80
2018-12-06T21:34:03.488Z,20.00
2018-12-06T21:36:31.028Z,20.67
2018-12-06T21:38:58.512Z,20.20
2018-12-06T21:41:26.076Z,21.00
2018-12-06T21:43:53.573Z,17.93
2018-12-06T21:46:21.100Z,21.37
2018-12-06T21:48:48.568Z,19.73
2018-12-06T21:51:16.024Z,17.93
2018-12-06T21:53:43.494Z,18.33
2018-12-06T21:56:11.077Z,22.03
2018-12-06T21:58:38.624Z,20.10
2018-12-06T22:01:06.064Z,15.47
2018-12-06T22:03:33.533Z,17.47
2018-12-06T22:06:01.105Z,21.53
2018-12-06T22:08:28.560Z,18.53
2018-12-06T22:10:56.023Z,18.33
2018-12-06T22:13:23.589Z,16.57
2018-12-06T22:15:51.044Z,17.53
2018-12-06T22:18:18.515Z,16.87
2018-12-06T22:20:45.948Z,14.80
2018-12-06T22:23:13.440Z,15.47
2018-12-06T22:25:40.965Z,17.83
2018-12-06T22:28:08.469Z,13.93
2018-12-06T22:30:35.924Z,16.73
2018-12-06T22:33:03.396Z,18.30
2018-12-06T22:35:30.945Z,19.80
2018-12-06T22:37:58.383Z,21.83
2018-12-06T22:40:25.818Z,25.50
2018-12-06T22:42:53.337Z,20.27
2018-12-06T22:45:55.475Z,22.30
2018-12-06T22:48:23.555Z,25.90
2018-12-06T22:50:51.120Z,19.90
2018-12-06T22:53:18.688Z,21.77
2018-12-06T22:55:46.180Z,18.93
2018-12-06T22:58:13.708Z,21.63
2018-12-06T23:00:43.702Z,16.83
2018-12-06T23:03:11.290Z,18.37
2018-12-06T23:05:38.851Z,16.37
2018-12-06T23:08:06.529Z,20.83
2018-12-06T23:10:34.083Z,17.03
2018-12-06T23:13:01.549Z,20.97
2018-12-06T23:15:29.096Z,19.70
2018-12-06T23:17:56.567Z,16.63
2018-12-06T23:20:24.145Z,14.50
2018-12-06T23:22:51.710Z,13.07
2018-12-06T23:25:19.156Z,11.80
2018-12-06T23:27:46.629Z,12.33
2018-12-06T23:30:14.107Z,13.10
2018-12-06T23:32:41.649Z,13.67
2018-12-06T23:35:09.212Z,17.13
2018-12-06T23:37:36.676Z,14.63
2018-12-06T23:40:05.366Z,12.97
2018-12-06T23:42:32.820Z,13.57
2018-12-06T23:45:00.280Z,12.47
2018-12-06T23:47:27.717Z,12.50
2018-12-06T23:49:55.204Z,14.43
2018-12-06T23:52:22.671Z,15.50
2018-12-06T23:54:50.127Z,15.93
2018-12-06T23:57:17.701Z,14.20
2018-12-06T23:59:45.161Z,15.43
